Terminal Aerodrome Forecast
Issued by NWS Mt. Holly, NJ

Home | Current Version | Previous Version | Text Only | Print | Product List | Glossary On
Versions: 1 2 3 4 5 6 7 8 9 10 11 12 13 14 15 16 17 18 19 20 21 22 23 24 25
785
FTUS41 KPHI 221130
TAFRDG
TAF
KRDG 221130Z 2212/2312 00000KT P6SM FEW050 FEW250
     FM221800 23006KT P6SM FEW040 SCT250
     FM230300 00000KT P6SM SCT120 BKN250
     FM230700 00000KT P6SM SCT100 BKN250 PROB30 2308/2312 2SM TSRA
      OVC040CB=

USA.gov is the U.S. government's official web portal to all federal, state and local government web resources and services.